sensor_id;sensor_type;location;lat;lon;timestamp;P1;durP1;ratioP1;P2;durP2;ratioP2
80625;SDS011;69982;51.758;5.784;2023-10-08T00:01:21;14.30;;;2.70;;
80625;SDS011;69982;51.758;5.784;2023-10-08T00:03:52;11.30;;;2.70;;
80625;SDS011;69982;51.758;5.784;2023-10-08T00:06:33;12.20;;;2.80;;
80625;SDS011;69982;51.758;5.784;2023-10-08T00:09:22;17.30;;;3.00;;
80625;SDS011;69982;51.758;5.784;2023-10-08T00:11:52;13.20;;;2.80;;
80625;SDS011;69982;51.758;5.784;2023-10-08T00:14:24;11.80;;;3.00;;
80625;SDS011;69982;51.758;5.784;2023-10-08T00:17:00;9.70;;;2.70;;
80625;SDS011;69982;51.758;5.784;2023-10-08T00:19:32;9.40;;;2.70;;
80625;SDS011;69982;51.758;5.784;2023-10-08T00:22:09;14.10;;;2.90;;
80625;SDS011;69982;51.758;5.784;2023-10-08T00:24:45;12.00;;;2.90;;
80625;SDS011;69982;51.758;5.784;2023-10-08T00:27:20;13.20;;;2.90;;
80625;SDS011;69982;51.758;5.784;2023-10-08T00:32:34;11.50;;;3.10;;
80625;SDS011;69982;51.758;5.784;2023-10-08T00:35:24;14.60;;;3.10;;
80625;SDS011;69982;51.758;5.784;2023-10-08T00:38:04;10.80;;;2.50;;
80625;SDS011;69982;51.758;5.784;2023-10-08T00:40:38;12.00;;;2.50;;
80625;SDS011;69982;51.758;5.784;2023-10-08T00:43:30;10.70;;;2.70;;
80625;SDS011;69982;51.758;5.784;2023-10-08T00:46:08;12.30;;;3.10;;
80625;SDS011;69982;51.758;5.784;2023-10-08T00:48:48;11.80;;;3.60;;
80625;SDS011;69982;51.758;5.784;2023-10-08T00:52:01;17.00;;;2.40;;
80625;SDS011;69982;51.758;5.784;2023-10-08T00:55:00;12.90;;;3.00;;
80625;SDS011;69982;51.758;5.784;2023-10-08T00:57:34;14.10;;;2.90;;
80625;SDS011;69982;51.758;5.784;2023-10-08T01:00:08;15.40;;;3.30;;
80625;SDS011;69982;51.758;5.784;2023-10-08T01:02:58;15.40;;;3.00;;
80625;SDS011;69982;51.758;5.784;2023-10-08T01:05:30;15.70;;;2.90;;
80625;SDS011;69982;51.758;5.784;2023-10-08T01:08:17;16.90;;;4.20;;
80625;SDS011;69982;51.758;5.784;2023-10-08T01:10:55;14.40;;;3.10;;
80625;SDS011;69982;51.758;5.784;2023-10-08T01:13:45;14.30;;;3.70;;
80625;SDS011;69982;51.758;5.784;2023-10-08T01:16:24;11.30;;;2.90;;
80625;SDS011;69982;51.758;5.784;2023-10-08T01:18:58;12.10;;;3.10;;
80625;SDS011;69982;51.758;5.784;2023-10-08T01:24:08;14.30;;;3.30;;
80625;SDS011;69982;51.758;5.784;2023-10-08T01:26:47;13.30;;;2.90;;
80625;SDS011;69982;51.758;5.784;2023-10-08T01:29:22;15.50;;;3.20;;
80625;SDS011;69982;51.758;5.784;2023-10-08T01:31:57;11.70;;;3.20;;
80625;SDS011;69982;51.758;5.784;2023-10-08T01:34:32;16.70;;;3.50;;
80625;SDS011;69982;51.758;5.784;2023-10-08T01:37:07;10.60;;;3.60;;
80625;SDS011;69982;51.758;5.784;2023-10-08T01:42:13;13.40;;;3.60;;
80625;SDS011;69982;51.758;5.784;2023-10-08T01:44:54;12.30;;;3.00;;
80625;SDS011;69982;51.758;5.784;2023-10-08T01:47:24;17.60;;;4.10;;
80625;SDS011;69982;51.758;5.784;2023-10-08T01:49:53;12.20;;;3.10;;
80625;SDS011;69982;51.758;5.784;2023-10-08T01:52:35;13.60;;;4.00;;
80625;SDS011;69982;51.758;5.784;2023-10-08T01:55:06;13.20;;;3.10;;
80625;SDS011;69982;51.758;5.784;2023-10-08T01:57:42;13.40;;;3.40;;
80625;SDS011;69982;51.758;5.784;2023-10-08T02:00:15;13.30;;;3.10;;
80625;SDS011;69982;51.758;5.784;2023-10-08T02:02:58;11.20;;;3.10;;
80625;SDS011;69982;51.758;5.784;2023-10-08T02:05:29;18.00;;;3.60;;
80625;SDS011;69982;51.758;5.784;2023-10-08T02:07:59;11.10;;;3.00;;
80625;SDS011;69982;51.758;5.784;2023-10-08T02:10:31;11.10;;;2.80;;
80625;SDS011;69982;51.758;5.784;2023-10-08T02:13:05;13.30;;;2.80;;
80625;SDS011;69982;51.758;5.784;2023-10-08T02:15:36;13.30;;;2.80;;
80625;SDS011;69982;51.758;5.784;2023-10-08T02:18:11;12.30;;;2.90;;
80625;SDS011;69982;51.758;5.784;2023-10-08T02:20:43;13.50;;;3.30;;
80625;SDS011;69982;51.758;5.784;2023-10-08T02:23:13;12.60;;;3.20;;
80625;SDS011;69982;51.758;5.784;2023-10-08T02:25:49;9.10;;;3.00;;
80625;SDS011;69982;51.758;5.784;2023-10-08T02:28:18;13.80;;;3.20;;
80625;SDS011;69982;51.758;5.784;2023-10-08T02:30:49;12.10;;;2.90;;
80625;SDS011;69982;51.758;5.784;2023-10-08T02:33:21;14.60;;;3.20;;
80625;SDS011;69982;51.758;5.784;2023-10-08T02:35:51;12.50;;;3.20;;
80625;SDS011;69982;51.758;5.784;2023-10-08T02:38:22;15.60;;;3.60;;
80625;SDS011;69982;51.758;5.784;2023-10-08T02:40:59;13.50;;;4.10;;
80625;SDS011;69982;51.758;5.784;2023-10-08T02:43:34;14.50;;;3.20;;
80625;SDS011;69982;51.758;5.784;2023-10-08T02:46:06;12.40;;;4.10;;
80625;SDS011;69982;51.758;5.784;2023-10-08T02:48:42;10.10;;;2.90;;
80625;SDS011;69982;51.758;5.784;2023-10-08T02:51:25;12.80;;;3.50;;
80625;SDS011;69982;51.758;5.784;2023-10-08T02:54:03;10.30;;;3.00;;
80625;SDS011;69982;51.758;5.784;2023-10-08T02:56:50;14.50;;;3.40;;
80625;SDS011;69982;51.758;5.784;2023-10-08T02:59:29;11.90;;;3.40;;
80625;SDS011;69982;51.758;5.784;2023-10-08T03:02:20;14.70;;;3.40;;
80625;SDS011;69982;51.758;5.784;2023-10-08T03:04:55;16.90;;;3.50;;
80625;SDS011;69982;51.758;5.784;2023-10-08T03:07:29;16.40;;;3.40;;
80625;SDS011;69982;51.758;5.784;2023-10-08T03:10:01;12.90;;;2.90;;
80625;SDS011;69982;51.758;5.784;2023-10-08T03:12:54;13.00;;;3.20;;
80625;SDS011;69982;51.758;5.784;2023-10-08T03:15:31;10.50;;;3.00;;
80625;SDS011;69982;51.758;5.784;2023-10-08T03:18:16;13.20;;;2.90;;
80625;SDS011;69982;51.758;5.784;2023-10-08T03:20:45;15.70;;;3.40;;
80625;SDS011;69982;51.758;5.784;2023-10-08T03:23:23;13.00;;;3.10;;
80625;SDS011;69982;51.758;5.784;2023-10-08T03:25:54;14.00;;;3.40;;
80625;SDS011;69982;51.758;5.784;2023-10-08T03:28:39;16.80;;;3.30;;
80625;SDS011;69982;51.758;5.784;2023-10-08T03:31:11;18.80;;;4.00;;
80625;SDS011;69982;51.758;5.784;2023-10-08T03:33:45;15.50;;;3.40;;
80625;SDS011;69982;51.758;5.784;2023-10-08T03:36:17;12.60;;;3.20;;
80625;SDS011;69982;51.758;5.784;2023-10-08T03:39:04;14.40;;;3.30;;
80625;SDS011;69982;51.758;5.784;2023-10-08T03:41:42;15.00;;;3.40;;
80625;SDS011;69982;51.758;5.784;2023-10-08T03:44:38;14.00;;;3.70;;
80625;SDS011;69982;51.758;5.784;2023-10-08T03:47:18;14.60;;;3.90;;
80625;SDS011;69982;51.758;5.784;2023-10-08T03:50:12;15.70;;;3.10;;
80625;SDS011;69982;51.758;5.784;2023-10-08T03:52:53;15.00;;;3.40;;
80625;SDS011;69982;51.758;5.784;2023-10-08T03:55:40;13.50;;;3.60;;
80625;SDS011;69982;51.758;5.784;2023-10-08T03:58:12;13.90;;;3.30;;
80625;SDS011;69982;51.758;5.784;2023-10-08T04:01:03;13.80;;;4.00;;
80625;SDS011;69982;51.758;5.784;2023-10-08T04:04:13;13.60;;;3.20;;
80625;SDS011;69982;51.758;5.784;2023-10-08T04:06:42;13.20;;;3.60;;
80625;SDS011;69982;51.758;5.784;2023-10-08T04:09:18;11.40;;;3.90;;
80625;SDS011;69982;51.758;5.784;2023-10-08T04:11:53;17.20;;;3.60;;
80625;SDS011;69982;51.758;5.784;2023-10-08T04:14:41;12.80;;;3.00;;
80625;SDS011;69982;51.758;5.784;2023-10-08T04:17:13;11.20;;;3.60;;
80625;SDS011;69982;51.758;5.784;2023-10-08T04:19:59;12.00;;;3.50;;
80625;SDS011;69982;51.758;5.784;2023-10-08T04:22:39;13.90;;;4.10;;
80625;SDS011;69982;51.758;5.784;2023-10-08T04:27:52;15.00;;;3.90;;
80625;SDS011;69982;51.758;5.784;2023-10-08T04:30:26;14.20;;;3.80;;
80625;SDS011;69982;51.758;5.784;2023-10-08T04:33:05;17.30;;;3.80;;
80625;SDS011;69982;51.758;5.784;2023-10-08T04:35:44;12.80;;;3.90;;
80625;SDS011;69982;51.758;5.784;2023-10-08T04:38:24;11.00;;;3.30;;
80625;SDS011;69982;51.758;5.784;2023-10-08T04:40:55;14.30;;;4.00;;
80625;SDS011;69982;51.758;5.784;2023-10-08T04:43:30;15.30;;;3.00;;
80625;SDS011;69982;51.758;5.784;2023-10-08T04:46:00;10.80;;;3.60;;
80625;SDS011;69982;51.758;5.784;2023-10-08T04:48:36;10.70;;;3.60;;
80625;SDS011;69982;51.758;5.784;2023-10-08T04:51:06;15.30;;;3.80;;
80625;SDS011;69982;51.758;5.784;2023-10-08T04:53:43;11.10;;;3.90;;
80625;SDS011;69982;51.758;5.784;2023-10-08T04:56:16;14.60;;;3.90;;
80625;SDS011;69982;51.758;5.784;2023-10-08T04:59:00;13.10;;;4.50;;
80625;SDS011;69982;51.758;5.784;2023-10-08T05:01:36;11.40;;;3.70;;
80625;SDS011;69982;51.758;5.784;2023-10-08T05:04:28;13.90;;;3.30;;
80625;SDS011;69982;51.758;5.784;2023-10-08T05:07:19;11.00;;;3.70;;
80625;SDS011;69982;51.758;5.784;2023-10-08T05:10:14;14.10;;;4.10;;
80625;SDS011;69982;51.758;5.784;2023-10-08T05:12:57;14.00;;;3.70;;
80625;SDS011;69982;51.758;5.784;2023-10-08T05:15:39;15.60;;;4.00;;
80625;SDS011;69982;51.758;5.784;2023-10-08T05:18:17;14.70;;;4.00;;
80625;SDS011;69982;51.758;5.784;2023-10-08T05:20:54;15.60;;;4.40;;
80625;SDS011;69982;51.758;5.784;2023-10-08T05:23:43;14.20;;;4.10;;
80625;SDS011;69982;51.758;5.784;2023-10-08T05:26:25;9.90;;;3.40;;
80625;SDS011;69982;51.758;5.784;2023-10-08T05:29:13;15.60;;;4.00;;
80625;SDS011;69982;51.758;5.784;2023-10-08T05:32:14;12.40;;;4.10;;
80625;SDS011;69982;51.758;5.784;2023-10-08T05:35:11;16.50;;;4.10;;
80625;SDS011;69982;51.758;5.784;2023-10-08T05:38:00;15.20;;;3.90;;
80625;SDS011;69982;51.758;5.784;2023-10-08T05:40:42;10.40;;;3.70;;
80625;SDS011;69982;51.758;5.784;2023-10-08T05:43:28;15.60;;;4.00;;
80625;SDS011;69982;51.758;5.784;2023-10-08T05:46:12;13.10;;;4.30;;
80625;SDS011;69982;51.758;5.784;2023-10-08T05:48:55;12.30;;;4.00;;
80625;SDS011;69982;51.758;5.784;2023-10-08T05:51:40;14.90;;;5.10;;
80625;SDS011;69982;51.758;5.784;2023-10-08T05:54:16;13.90;;;4.20;;
80625;SDS011;69982;51.758;5.784;2023-10-08T05:59:43;15.60;;;4.20;;
80625;SDS011;69982;51.758;5.784;2023-10-08T06:02:28;14.00;;;3.90;;
80625;SDS011;69982;51.758;5.784;2023-10-08T06:05:01;11.60;;;4.00;;
80625;SDS011;69982;51.758;5.784;2023-10-08T06:07:42;12.30;;;3.90;;
80625;SDS011;69982;51.758;5.784;2023-10-08T06:10:29;16.80;;;4.80;;
80625;SDS011;69982;51.758;5.784;2023-10-08T06:15:45;13.50;;;4.10;;
80625;SDS011;69982;51.758;5.784;2023-10-08T06:18:28;12.90;;;4.60;;
80625;SDS011;69982;51.758;5.784;2023-10-08T06:21:02;14.60;;;4.40;;
80625;SDS011;69982;51.758;5.784;2023-10-08T06:23:40;14.50;;;3.70;;
80625;SDS011;69982;51.758;5.784;2023-10-08T06:26:15;14.30;;;4.10;;
80625;SDS011;69982;51.758;5.784;2023-10-08T06:28:50;12.10;;;4.30;;
80625;SDS011;69982;51.758;5.784;2023-10-08T06:31:26;13.70;;;4.10;;
80625;SDS011;69982;51.758;5.784;2023-10-08T06:34:01;13.70;;;4.00;;
80625;SDS011;69982;51.758;5.784;2023-10-08T06:36:33;14.10;;;3.90;;
80625;SDS011;69982;51.758;5.784;2023-10-08T06:39:02;12.70;;;3.80;;
80625;SDS011;69982;51.758;5.784;2023-10-08T06:41:32;14.20;;;4.30;;
80625;SDS011;69982;51.758;5.784;2023-10-08T06:46:44;16.00;;;4.30;;
80625;SDS011;69982;51.758;5.784;2023-10-08T06:51:49;17.40;;;4.10;;
80625;SDS011;69982;51.758;5.784;2023-10-08T06:54:21;15.00;;;3.70;;
80625;SDS011;69982;51.758;5.784;2023-10-08T06:56:51;20.80;;;4.60;;
80625;SDS011;69982;51.758;5.784;2023-10-08T06:59:23;17.50;;;3.70;;
80625;SDS011;69982;51.758;5.784;2023-10-08T07:02:05;23.90;;;4.20;;
80625;SDS011;69982;51.758;5.784;2023-10-08T07:04:39;14.70;;;3.50;;
80625;SDS011;69982;51.758;5.784;2023-10-08T07:07:20;16.60;;;3.90;;
80625;SDS011;69982;51.758;5.784;2023-10-08T07:10:11;15.10;;;3.50;;
80625;SDS011;69982;51.758;5.784;2023-10-08T07:12:46;16.00;;;3.60;;
80625;SDS011;69982;51.758;5.784;2023-10-08T07:15:37;17.30;;;3.50;;
80625;SDS011;69982;51.758;5.784;2023-10-08T07:18:13;15.40;;;3.40;;
80625;SDS011;69982;51.758;5.784;2023-10-08T07:21:05;12.80;;;3.00;;
80625;SDS011;69982;51.758;5.784;2023-10-08T07:23:48;13.10;;;2.70;;
80625;SDS011;69982;51.758;5.784;2023-10-08T07:26:40;11.70;;;3.20;;
80625;SDS011;69982;51.758;5.784;2023-10-08T07:29:49;15.70;;;4.40;;
80625;SDS011;69982;51.758;5.784;2023-10-08T07:36:49;10.20;;;3.90;;
80625;SDS011;69982;51.758;5.784;2023-10-08T07:42:03;13.30;;;3.80;;
80625;SDS011;69982;51.758;5.784;2023-10-08T07:44:37;14.00;;;3.60;;
80625;SDS011;69982;51.758;5.784;2023-10-08T07:47:20;14.10;;;3.70;;
80625;SDS011;69982;51.758;5.784;2023-10-08T07:49:54;14.90;;;3.30;;
80625;SDS011;69982;51.758;5.784;2023-10-08T07:52:26;15.30;;;3.50;;
80625;SDS011;69982;51.758;5.784;2023-10-08T07:54:58;13.00;;;3.80;;
80625;SDS011;69982;51.758;5.784;2023-10-08T07:57:29;10.40;;;3.80;;
80625;SDS011;69982;51.758;5.784;2023-10-08T08:00:01;9.70;;;3.40;;
80625;SDS011;69982;51.758;5.784;2023-10-08T08:03:01;9.70;;;3.30;;
80625;SDS011;69982;51.758;5.784;2023-10-08T08:05:33;12.90;;;3.30;;
80625;SDS011;69982;51.758;5.784;2023-10-08T08:08:06;9.20;;;3.20;;
80625;SDS011;69982;51.758;5.784;2023-10-08T08:11:15;11.10;;;3.00;;
80625;SDS011;69982;51.758;5.784;2023-10-08T08:13:53;8.80;;;2.90;;
80625;SDS011;69982;51.758;5.784;2023-10-08T08:16:53;10.60;;;2.80;;
80625;SDS011;69982;51.758;5.784;2023-10-08T08:19:50;10.30;;;3.20;;
80625;SDS011;69982;51.758;5.784;2023-10-08T08:22:30;7.80;;;2.80;;
80625;SDS011;69982;51.758;5.784;2023-10-08T08:25:27;9.70;;;3.10;;
80625;SDS011;69982;51.758;5.784;2023-10-08T08:28:07;9.20;;;2.50;;
80625;SDS011;69982;51.758;5.784;2023-10-08T08:31:04;9.70;;;3.40;;
80625;SDS011;69982;51.758;5.784;2023-10-08T08:34:00;10.60;;;2.40;;
80625;SDS011;69982;51.758;5.784;2023-10-08T08:36:44;7.70;;;2.10;;
80625;SDS011;69982;51.758;5.784;2023-10-08T08:39:18;7.40;;;1.90;;
80625;SDS011;69982;51.758;5.784;2023-10-08T08:42:56;6.50;;;2.60;;
80625;SDS011;69982;51.758;5.784;2023-10-08T08:45:34;11.70;;;2.60;;
80625;SDS011;69982;51.758;5.784;2023-10-08T08:48:17;7.70;;;2.40;;
80625;SDS011;69982;51.758;5.784;2023-10-08T08:50:54;9.60;;;2.30;;
80625;SDS011;69982;51.758;5.784;2023-10-08T08:53:25;8.30;;;2.40;;
80625;SDS011;69982;51.758;5.784;2023-10-08T08:55:58;8.60;;;2.20;;
80625;SDS011;69982;51.758;5.784;2023-10-08T08:58:33;7.20;;;2.30;;
80625;SDS011;69982;51.758;5.784;2023-10-08T09:01:03;8.20;;;2.60;;
80625;SDS011;69982;51.758;5.784;2023-10-08T09:03:38;8.40;;;2.10;;
80625;SDS011;69982;51.758;5.784;2023-10-08T09:06:10;10.30;;;2.20;;
80625;SDS011;69982;51.758;5.784;2023-10-08T09:08:41;7.00;;;2.10;;
80625;SDS011;69982;51.758;5.784;2023-10-08T09:11:16;8.10;;;1.80;;
80625;SDS011;69982;51.758;5.784;2023-10-08T09:13:47;7.00;;;1.50;;
80625;SDS011;69982;51.758;5.784;2023-10-08T09:16:16;9.20;;;1.50;;
80625;SDS011;69982;51.758;5.784;2023-10-08T09:18:47;7.40;;;1.30;;
80625;SDS011;69982;51.758;5.784;2023-10-08T09:21:19;6.00;;;1.10;;
80625;SDS011;69982;51.758;5.784;2023-10-08T09:23:51;6.20;;;1.30;;
80625;SDS011;69982;51.758;5.784;2023-10-08T09:26:31;6.10;;;1.30;;
80625;SDS011;69982;51.758;5.784;2023-10-08T09:29:07;5.90;;;1.10;;
80625;SDS011;69982;51.758;5.784;2023-10-08T09:31:51;7.40;;;1.60;;
80625;SDS011;69982;51.758;5.784;2023-10-08T09:34:31;6.50;;;1.00;;
80625;SDS011;69982;51.758;5.784;2023-10-08T09:37:01;11.50;;;1.10;;
80625;SDS011;69982;51.758;5.784;2023-10-08T09:39:30;5.80;;;1.20;;
80625;SDS011;69982;51.758;5.784;2023-10-08T09:42:03;5.20;;;1.10;;
80625;SDS011;69982;51.758;5.784;2023-10-08T09:44:39;6.20;;;1.10;;
80625;SDS011;69982;51.758;5.784;2023-10-08T09:47:10;6.60;;;1.40;;
80625;SDS011;69982;51.758;5.784;2023-10-08T09:55:55;12.30;;;1.80;;
80625;SDS011;69982;51.758;5.784;2023-10-08T09:58:26;7.10;;;1.00;;
80625;SDS011;69982;51.758;5.784;2023-10-08T10:00:57;6.40;;;1.60;;
80625;SDS011;69982;51.758;5.784;2023-10-08T10:03:28;6.40;;;1.10;;
80625;SDS011;69982;51.758;5.784;2023-10-08T10:06:11;6.00;;;1.00;;
80625;SDS011;69982;51.758;5.784;2023-10-08T10:08:55;7.50;;;1.20;;
80625;SDS011;69982;51.758;5.784;2023-10-08T10:11:30;4.90;;;0.90;;
80625;SDS011;69982;51.758;5.784;2023-10-08T10:14:02;7.30;;;1.20;;
80625;SDS011;69982;51.758;5.784;2023-10-08T10:16:36;6.90;;;1.30;;
80625;SDS011;69982;51.758;5.784;2023-10-08T10:19:08;7.50;;;0.90;;
80625;SDS011;69982;51.758;5.784;2023-10-08T10:21:50;5.00;;;1.00;;
80625;SDS011;69982;51.758;5.784;2023-10-08T10:24:35;6.60;;;1.20;;
80625;SDS011;69982;51.758;5.784;2023-10-08T10:27:12;4.30;;;1.10;;
80625;SDS011;69982;51.758;5.784;2023-10-08T10:30:03;4.80;;;1.00;;
80625;SDS011;69982;51.758;5.784;2023-10-08T10:32:39;7.00;;;0.90;;
80625;SDS011;69982;51.758;5.784;2023-10-08T10:35:16;6.50;;;1.30;;
80625;SDS011;69982;51.758;5.784;2023-10-08T10:37:53;7.00;;;1.00;;
80625;SDS011;69982;51.758;5.784;2023-10-08T10:40:24;4.30;;;0.70;;
80625;SDS011;69982;51.758;5.784;2023-10-08T10:43:10;4.90;;;0.90;;
80625;SDS011;69982;51.758;5.784;2023-10-08T10:45:40;6.40;;;1.20;;
80625;SDS011;69982;51.758;5.784;2023-10-08T10:48:15;4.80;;;1.40;;
80625;SDS011;69982;51.758;5.784;2023-10-08T10:50:51;4.60;;;1.00;;
80625;SDS011;69982;51.758;5.784;2023-10-08T10:53:37;4.50;;;0.80;;
80625;SDS011;69982;51.758;5.784;2023-10-08T10:56:34;4.00;;;0.90;;
80625;SDS011;69982;51.758;5.784;2023-10-08T10:59:12;4.20;;;0.80;;
80625;SDS011;69982;51.758;5.784;2023-10-08T11:01:51;3.80;;;0.90;;
80625;SDS011;69982;51.758;5.784;2023-10-08T11:04:50;5.40;;;1.00;;
80625;SDS011;69982;51.758;5.784;2023-10-08T11:07:20;6.80;;;1.00;;
80625;SDS011;69982;51.758;5.784;2023-10-08T11:09:53;4.20;;;1.10;;
80625;SDS011;69982;51.758;5.784;2023-10-08T11:12:24;5.50;;;1.20;;
80625;SDS011;69982;51.758;5.784;2023-10-08T11:15:13;4.30;;;1.80;;
80625;SDS011;69982;51.758;5.784;2023-10-08T11:17:46;3.90;;;0.90;;
80625;SDS011;69982;51.758;5.784;2023-10-08T11:20:27;3.70;;;1.10;;
80625;SDS011;69982;51.758;5.784;2023-10-08T11:23:06;4.80;;;1.30;;
80625;SDS011;69982;51.758;5.784;2023-10-08T11:26:08;5.90;;;1.20;;
80625;SDS011;69982;51.758;5.784;2023-10-08T11:28:55;6.70;;;0.90;;
80625;SDS011;69982;51.758;5.784;2023-10-08T11:31:31;4.90;;;1.20;;
80625;SDS011;69982;51.758;5.784;2023-10-08T11:34:22;10.70;;;1.80;;
80625;SDS011;69982;51.758;5.784;2023-10-08T11:37:28;7.20;;;1.10;;
80625;SDS011;69982;51.758;5.784;2023-10-08T11:40:07;7.10;;;1.30;;
80625;SDS011;69982;51.758;5.784;2023-10-08T11:42:48;5.20;;;1.10;;
80625;SDS011;69982;51.758;5.784;2023-10-08T11:45:26;6.40;;;0.90;;
80625;SDS011;69982;51.758;5.784;2023-10-08T11:48:28;5.00;;;1.00;;
80625;SDS011;69982;51.758;5.784;2023-10-08T11:51:08;7.60;;;1.70;;
80625;SDS011;69982;51.758;5.784;2023-10-08T11:53:43;6.20;;;1.40;;
80625;SDS011;69982;51.758;5.784;2023-10-08T11:56:27;5.60;;;1.20;;
80625;SDS011;69982;51.758;5.784;2023-10-08T11:59:13;4.20;;;0.90;;
80625;SDS011;69982;51.758;5.784;2023-10-08T12:01:46;4.80;;;1.30;;
80625;SDS011;69982;51.758;5.784;2023-10-08T12:04:29;3.80;;;1.10;;
80625;SDS011;69982;51.758;5.784;2023-10-08T12:07:19;6.20;;;1.40;;
80625;SDS011;69982;51.758;5.784;2023-10-08T12:09:54;4.20;;;1.50;;
80625;SDS011;69982;51.758;5.784;2023-10-08T12:12:31;5.50;;;1.40;;
80625;SDS011;69982;51.758;5.784;2023-10-08T12:15:12;5.60;;;1.20;;
80625;SDS011;69982;51.758;5.784;2023-10-08T12:18:08;6.60;;;1.40;;
80625;SDS011;69982;51.758;5.784;2023-10-08T12:20:51;5.90;;;1.10;;
80625;SDS011;69982;51.758;5.784;2023-10-08T12:23:37;6.80;;;1.60;;
80625;SDS011;69982;51.758;5.784;2023-10-08T12:26:20;6.50;;;1.70;;
80625;SDS011;69982;51.758;5.784;2023-10-08T12:28:57;8.00;;;1.60;;
80625;SDS011;69982;51.758;5.784;2023-10-08T12:32:29;5.90;;;1.70;;
80625;SDS011;69982;51.758;5.784;2023-10-08T12:35:24;5.10;;;1.90;;
80625;SDS011;69982;51.758;5.784;2023-10-08T12:38:20;6.30;;;1.90;;
80625;SDS011;69982;51.758;5.784;2023-10-08T12:41:15;5.90;;;2.20;;
80625;SDS011;69982;51.758;5.784;2023-10-08T12:44:10;5.80;;;2.40;;
80625;SDS011;69982;51.758;5.784;2023-10-08T12:46:51;7.90;;;2.80;;
80625;SDS011;69982;51.758;5.784;2023-10-08T12:49:42;9.10;;;2.50;;
80625;SDS011;69982;51.758;5.784;2023-10-08T12:52:27;4.90;;;2.00;;
80625;SDS011;69982;51.758;5.784;2023-10-08T12:55:09;5.20;;;2.20;;
80625;SDS011;69982;51.758;5.784;2023-10-08T12:57:47;7.50;;;1.90;;
80625;SDS011;69982;51.758;5.784;2023-10-08T13:00:39;6.70;;;1.80;;
80625;SDS011;69982;51.758;5.784;2023-10-08T13:03:26;7.50;;;2.20;;
80625;SDS011;69982;51.758;5.784;2023-10-08T13:06:22;7.70;;;2.30;;
80625;SDS011;69982;51.758;5.784;2023-10-08T13:09:30;8.00;;;2.30;;
80625;SDS011;69982;51.758;5.784;2023-10-08T13:12:13;5.80;;;2.10;;
80625;SDS011;69982;51.758;5.784;2023-10-08T13:14:52;8.90;;;2.30;;
80625;SDS011;69982;51.758;5.784;2023-10-08T13:17:52;7.20;;;2.10;;
80625;SDS011;69982;51.758;5.784;2023-10-08T13:20:29;10.10;;;2.60;;
80625;SDS011;69982;51.758;5.784;2023-10-08T13:23:12;6.20;;;2.00;;
80625;SDS011;69982;51.758;5.784;2023-10-08T13:26:03;5.80;;;1.70;;
80625;SDS011;69982;51.758;5.784;2023-10-08T13:29:08;7.60;;;2.20;;
80625;SDS011;69982;51.758;5.784;2023-10-08T13:31:46;7.10;;;2.00;;
80625;SDS011;69982;51.758;5.784;2023-10-08T13:34:45;6.80;;;2.70;;
80625;SDS011;69982;51.758;5.784;2023-10-08T13:37:29;6.70;;;2.60;;
80625;SDS011;69982;51.758;5.784;2023-10-08T13:40:13;6.40;;;2.70;;
80625;SDS011;69982;51.758;5.784;2023-10-08T13:43:04;9.00;;;3.10;;
80625;SDS011;69982;51.758;5.784;2023-10-08T13:45:52;8.70;;;3.10;;
80625;SDS011;69982;51.758;5.784;2023-10-08T13:48:35;8.70;;;3.60;;
80625;SDS011;69982;51.758;5.784;2023-10-08T13:51:41;9.60;;;3.80;;
80625;SDS011;69982;51.758;5.784;2023-10-08T13:54:19;9.30;;;3.60;;
80625;SDS011;69982;51.758;5.784;2023-10-08T13:57:27;9.10;;;3.70;;
80625;SDS011;69982;51.758;5.784;2023-10-08T14:00:32;12.30;;;4.50;;
80625;SDS011;69982;51.758;5.784;2023-10-08T14:03:43;9.60;;;4.20;;
80625;SDS011;69982;51.758;5.784;2023-10-08T14:10:13;12.40;;;6.00;;
80625;SDS011;69982;51.758;5.784;2023-10-08T14:13:40;11.30;;;6.30;;
80625;SDS011;69982;51.758;5.784;2023-10-08T14:16:23;15.70;;;6.60;;
80625;SDS011;69982;51.758;5.784;2023-10-08T14:19:00;13.20;;;6.10;;
80625;SDS011;69982;51.758;5.784;2023-10-08T14:21:42;12.70;;;5.80;;
80625;SDS011;69982;51.758;5.784;2023-10-08T14:24:57;11.70;;;6.20;;
80625;SDS011;69982;51.758;5.784;2023-10-08T14:28:17;14.30;;;6.30;;
80625;SDS011;69982;51.758;5.784;2023-10-08T14:31:35;13.70;;;6.40;;
80625;SDS011;69982;51.758;5.784;2023-10-08T14:35:05;15.20;;;6.60;;
80625;SDS011;69982;51.758;5.784;2023-10-08T14:38:26;11.00;;;6.30;;
80625;SDS011;69982;51.758;5.784;2023-10-08T14:41:53;14.00;;;7.50;;
80625;SDS011;69982;51.758;5.784;2023-10-08T14:44:52;12.20;;;6.20;;
80625;SDS011;69982;51.758;5.784;2023-10-08T14:48:17;13.80;;;7.60;;
80625;SDS011;69982;51.758;5.784;2023-10-08T14:51:20;13.90;;;7.40;;
80625;SDS011;69982;51.758;5.784;2023-10-08T14:54:41;14.20;;;7.30;;
80625;SDS011;69982;51.758;5.784;2023-10-08T14:57:56;17.40;;;8.20;;
80625;SDS011;69982;51.758;5.784;2023-10-08T15:00:39;13.40;;;7.80;;
80625;SDS011;69982;51.758;5.784;2023-10-08T15:03:31;14.90;;;7.60;;
80625;SDS011;69982;51.758;5.784;2023-10-08T15:06:11;11.70;;;7.00;;
80625;SDS011;69982;51.758;5.784;2023-10-08T15:09:44;11.80;;;7.20;;
80625;SDS011;69982;51.758;5.784;2023-10-08T15:12:38;13.40;;;7.20;;
80625;SDS011;69982;51.758;5.784;2023-10-08T15:18:28;14.00;;;7.40;;
80625;SDS011;69982;51.758;5.784;2023-10-08T15:21:23;19.80;;;7.80;;
80625;SDS011;69982;51.758;5.784;2023-10-08T15:24:21;14.20;;;6.70;;
80625;SDS011;69982;51.758;5.784;2023-10-08T15:27:16;14.60;;;7.10;;
80625;SDS011;69982;51.758;5.784;2023-10-08T15:30:20;18.10;;;7.70;;
80625;SDS011;69982;51.758;5.784;2023-10-08T15:33:27;16.70;;;8.30;;
80625;SDS011;69982;51.758;5.784;2023-10-08T15:39:45;19.60;;;8.90;;
80625;SDS011;69982;51.758;5.784;2023-10-08T15:42:52;16.30;;;7.70;;
80625;SDS011;69982;51.758;5.784;2023-10-08T15:45:29;22.10;;;8.00;;
80625;SDS011;69982;51.758;5.784;2023-10-08T15:48:19;23.10;;;9.40;;
80625;SDS011;69982;51.758;5.784;2023-10-08T15:51:12;20.60;;;9.30;;
80625;SDS011;69982;51.758;5.784;2023-10-08T15:55:05;18.00;;;8.90;;
80625;SDS011;69982;51.758;5.784;2023-10-08T15:58:05;20.20;;;9.50;;
80625;SDS011;69982;51.758;5.784;2023-10-08T16:01:06;20.20;;;9.20;;
80625;SDS011;69982;51.758;5.784;2023-10-08T16:10:15;19.20;;;9.10;;
80625;SDS011;69982;51.758;5.784;2023-10-08T16:12:51;16.70;;;8.90;;
80625;SDS011;69982;51.758;5.784;2023-10-08T16:19:30;19.50;;;8.10;;
80625;SDS011;69982;51.758;5.784;2023-10-08T16:22:27;15.30;;;7.70;;
80625;SDS011;69982;51.758;5.784;2023-10-08T16:25:43;16.10;;;7.90;;
80625;SDS011;69982;51.758;5.784;2023-10-08T16:28:36;19.20;;;8.10;;
80625;SDS011;69982;51.758;5.784;2023-10-08T16:31:22;15.50;;;7.50;;
80625;SDS011;69982;51.758;5.784;2023-10-08T16:40:35;15.70;;;7.40;;
80625;SDS011;69982;51.758;5.784;2023-10-08T16:43:55;17.70;;;7.30;;
80625;SDS011;69982;51.758;5.784;2023-10-08T16:46:59;17.70;;;7.80;;
80625;SDS011;69982;51.758;5.784;2023-10-08T16:49:53;17.00;;;7.30;;
80625;SDS011;69982;51.758;5.784;2023-10-08T16:53:45;14.50;;;6.60;;
80625;SDS011;69982;51.758;5.784;2023-10-08T16:57:39;17.50;;;7.50;;
80625;SDS011;69982;51.758;5.784;2023-10-08T17:00:27;15.90;;;7.20;;
80625;SDS011;69982;51.758;5.784;2023-10-08T17:08:02;17.00;;;7.50;;
80625;SDS011;69982;51.758;5.784;2023-10-08T17:11:31;16.70;;;7.00;;
80625;SDS011;69982;51.758;5.784;2023-10-08T17:14:32;17.10;;;6.80;;
80625;SDS011;69982;51.758;5.784;2023-10-08T17:17:45;15.80;;;6.90;;
80625;SDS011;69982;51.758;5.784;2023-10-08T17:21:18;15.50;;;6.20;;
80625;SDS011;69982;51.758;5.784;2023-10-08T17:24:18;14.30;;;5.80;;
80625;SDS011;69982;51.758;5.784;2023-10-08T17:27:25;12.80;;;5.40;;